This is the latest recevied weather packets stored in our database for station/object DL5DI-H. If no packets are shown the sender has not sent any weather packets the latest 10 day(s).
| Time | Temp. | Humidity | Pressure | Rain* | Wind** | Luminosity | Snow |
|---|---|---|---|---|---|---|---|
| 1777612800 | 4.44° C | 71% | 1027.8 hPa | 0 mm | - | - | - |
| 1777612205 | 4.44° C | 71% | 1027.8 hPa | 0 mm | - | - | - |
| 1777611601 | 4.44° C | 71% | 1027.8 hPa | 0 mm | - | - | - |
| 1777611001 | 4.44° C | 70% | 1027.8 hPa | 0 mm | - | - | - |
| 1777610401 | 4.44° C | 69% | 1027.8 hPa | 0 mm | - | - | - |
| 1777609805 | 4.44° C | 68% | 1027.7 hPa | 0 mm | - | - | - |
| 1777609204 | 4.44° C | 69% | 1027.7 hPa | 0 mm | - | - | - |
| 1777608605 | 5° C | 67% | 1027.6 hPa | 0 mm | - | - | - |
| 1777608001 | 5° C | 68% | 1027.5 hPa | 0 mm | - | - | - |
| 1777607405 | 5° C | 67% | 1027.6 hPa | 0 mm | - | - | - |
| 1777606204 | 5.56° C | 65% | 1027.6 hPa | 0 mm | - | - | - |
| 1777605000 | 5.56° C | 65% | 1027.6 hPa | 0 mm | - | - | - |
| 1777604401 | 5.56° C | 65% | 1027.6 hPa | 0 mm | - | - | - |
| 1777603800 | 5.56° C | 65% | 1027.6 hPa | 0 mm | - | - | - |
| 1777603201 | 6.11° C | 65% | 1027.6 hPa | 0 mm | - | - | - |
| 1777602601 | 6.11° C | 65% | 1027.5 hPa | 0 mm | - | - | - |
| 1777602005 | 6.11° C | 65% | 1027.7 hPa | 0 mm | - | - | - |
| 1777601405 | 6.11° C | 64% | 1027.6 hPa | 0 mm | - | - | - |
| 1777587005 | 10.56° C | 50% | 1027.7 hPa | 0 mm | - | - | - |
| 1777584001 | 12.78° C | 43% | 1027.3 hPa | 0 mm | - | - | - |
| 1777581005 | 13.33° C | 39% | 1027.3 hPa | 0 mm | - | - | - |
| 1777580401 | 13.89° C | 36% | 1027.2 hPa | 0 mm | - | - | - |
| 1777579800 | 14.44° C | 36% | 1027.2 hPa | 0 mm | - | - | - |
| 1777579201 | 14.44° C | 36% | 1027.2 hPa | 0 mm | - | - | - |
| 1777578605 | 15° C | 34% | 1027.1 hPa | 0 mm | - | - | - |
* Rain latest hour (hover to see other rain measurements)
** Current wind speed in m/s (hover to see current wind gust speed)